Time;durP1;ratioP1;P1;durP2;ratioP2;P2;SDS_P1;SDS_P2;PMS_P1;PMS_P2;Temp;Humidity;BMP_temperature;BMP_pressure;BME280_temperature;BME280_humidity;BME280_pressure;Samples;Min_cycle;Max_cycle;Signal;HPM_P1;HPM_P2
2022/03/20 00:01:09;;;;;;;30.90;19.57;;;;;;;1.05;68.72;99719.13;6202273;28;20228;-71
2022/03/20 00:04:12;;;;;;;33.03;19.87;;;;;;;1.08;68.03;99721.69;6217250;28;20236;-71
2022/03/20 00:07:14;;;;;;;24.20;16.90;;;;;;;1.08;66.86;99720.84;6202228;28;20305;-71
2022/03/20 00:10:16;;;;;;;26.10;17.70;;;;;;;1.03;66.22;99718.25;6200481;28;20236;-71
2022/03/20 00:13:21;;;;;;;26.80;17.27;;;;;;;1.01;65.49;99713.94;6184362;28;20236;-71
2022/03/20 00:16:23;;;;;;;26.27;15.10;;;;;;;1.10;63.47;99719.03;6201817;28;20323;-72
2022/03/20 00:19:26;;;;;;;23.87;15.80;;;;;;;1.17;63.75;99718.13;6201437;28;20588;-72
2022/03/20 00:22:30;;;;;;;24.10;15.90;;;;;;;1.08;64.28;99724.28;6202088;28;20228;-72
2022/03/20 00:25:38;;;;;;;22.13;15.40;;;;;;;0.99;64.47;99713.97;6203466;28;20235;-72
2022/03/20 00:28:40;;;;;;;24.97;16.43;;;;;;;0.91;64.06;99714.91;6203008;28;20228;-72
2022/03/20 00:31:42;;;;;;;23.63;16.77;;;;;;;0.81;64.43;99708.91;6202626;28;20232;-71
2022/03/20 00:34:45;;;;;;;25.40;16.30;;;;;;;0.73;65.12;99713.31;6200733;28;20553;-71
2022/03/20 00:37:54;;;;;;;23.73;16.10;;;;;;;0.65;64.60;99715.13;6201160;28;20243;-69
2022/03/20 00:41:03;;;;;;;24.20;15.77;;;;;;;0.54;65.24;99712.63;6207593;28;20236;-71
2022/03/20 00:44:06;;;;;;;23.60;16.70;;;;;;;0.43;65.18;99716.16;6210540;28;20232;-72
2022/03/20 00:47:09;;;;;;;27.10;16.63;;;;;;;0.38;64.94;99713.59;6199281;28;20240;-71
2022/03/20 00:50:11;;;;;;;25.70;15.30;;;;;;;0.29;65.39;99711.94;6195964;28;20232;-71
2022/03/20 00:53:14;;;;;;;27.73;16.80;;;;;;;0.14;65.99;99718.94;6210552;28;20239;-71
2022/03/20 00:56:16;;;;;;;22.67;15.80;;;;;;;0.12;65.70;99713.75;6209164;28;20294;-71
2022/03/20 00:59:18;;;;;;;24.03;15.37;;;;;;;0.13;64.94;99712.88;6209236;28;20244;-71
2022/03/20 01:02:21;;;;;;;23.37;16.50;;;;;;;0.09;64.91;99713.78;6208821;28;20561;-71
2022/03/20 01:05:23;;;;;;;24.30;15.57;;;;;;;-0.07;65.85;99705.22;6209396;28;20234;-71
2022/03/20 01:08:26;;;;;;;20.83;14.77;;;;;;;-0.10;65.76;99696.59;6207803;28;20243;-72
2022/03/20 01:11:29;;;;;;;21.47;14.80;;;;;;;-0.09;64.74;99699.16;6209875;28;20239;-71
2022/03/20 01:14:31;;;;;;;20.10;13.80;;;;;;;-0.09;64.73;99690.50;6211549;28;20224;-71
2022/03/20 01:17:35;;;;;;;22.27;14.03;;;;;;;-0.06;64.57;99706.06;6210461;28;20233;-70
2022/03/20 01:20:37;;;;;;;21.40;14.17;;;;;;;-0.11;64.16;99697.47;6192831;28;20224;-71
2022/03/20 01:23:39;;;;;;;19.60;13.50;;;;;;;-0.06;63.19;99695.69;6209300;28;20228;-71
2022/03/20 01:26:42;;;;;;;18.67;12.80;;;;;;;-0.08;63.08;99700.88;6208724;28;20236;-71
2022/03/20 01:29:45;;;;;;;20.83;13.00;;;;;;;-0.10;63.22;99694.00;6208887;28;20722;-71
2022/03/20 01:32:47;;;;;;;22.83;12.00;;;;;;;-0.13;62.75;99696.59;6209096;28;20244;-72
2022/03/20 01:35:49;;;;;;;17.67;11.50;;;;;;;-0.12;62.22;99696.59;6211245;28;20240;-71
2022/03/20 02:38:25;;;;;;;16.97;10.70;;;;;;;-1.39;64.25;99695.19;5496849;28;20258;-72
2022/03/20 02:41:28;;;;;;;15.00;9.90;;;;;;;-1.37;64.00;99696.06;6218594;28;20235;-71
2022/03/20 02:45:00;;;;;;;18.17;10.07;;;;;;;-1.40;64.12;99711.63;6205481;28;20286;-71
2022/03/20 02:48:04;;;;;;;18.00;10.47;;;;;;;-1.43;63.60;99713.34;6192474;28;20240;-71
2022/03/20 02:51:06;;;;;;;16.10;9.97;;;;;;;-1.45;63.32;99713.34;6204930;28;20221;-72
2022/03/20 02:54:10;;;;;;;14.37;9.47;;;;;;;-1.49;63.45;99707.28;6202395;28;20672;-72
2022/03/20 02:57:14;;;;;;;12.77;9.23;;;;;;;-1.52;63.63;99703.84;6205441;28;20296;-72
2022/03/20 03:00:21;;;;;;;15.10;9.87;;;;;;;-1.55;62.82;99716.78;6203893;28;20205;-72
2022/03/20 03:03:23;;;;;;;15.17;9.33;;;;;;;-1.65;62.79;99705.56;6203405;28;20704;-72
2022/03/20 03:06:26;;;;;;;13.40;9.33;;;;;;;-1.74;62.71;99699.50;6202879;28;20407;-70
2022/03/20 03:12:49;;;;;;;13.10;9.03;;;;;;;-1.86;62.92;99705.53;6203531;28;20798;-71
2022/03/20 03:16:00;;;;;;;14.07;8.67;;;;;;;-1.94;62.88;99708.09;6202177;28;20247;-71
2022/03/20 03:19:03;;;;;;;14.13;9.20;;;;;;;-2.03;62.74;99714.97;6204412;28;20236;-71
2022/03/20 03:22:05;;;;;;;13.90;9.30;;;;;;;-2.10;63.59;99718.41;6203667;28;20602;-71
2022/03/20 03:25:08;;;;;;;15.70;9.23;;;;;;;-2.24;63.31;99718.38;6201870;28;20323;-70
2022/03/20 03:28:11;;;;;;;15.23;9.87;;;;;;;-2.31;63.35;99720.06;6202389;28;20236;-71
2022/03/20 03:31:13;;;;;;;16.17;9.77;;;;;;;-2.40;63.51;99722.63;6201818;28;20244;-71
2022/03/20 03:37:36;;;;;;;15.97;9.90;;;;;;;-2.50;63.84;99728.59;6201264;28;20284;-71
2022/03/20 03:40:40;;;;;;;16.90;10.30;;;;;;;-2.52;64.41;99730.31;6202621;28;20228;-71
2022/03/20 03:43:43;;;;;;;16.27;9.80;;;;;;;-2.55;64.15;99726.84;6202001;28;20679;-71
2022/03/20 03:46:45;;;;;;;14.93;9.03;;;;;;;-2.56;64.71;99727.69;6201831;28;20362;-71
2022/03/20 03:49:48;;;;;;;14.57;9.63;;;;;;;-2.60;64.15;99729.41;6201684;28;20271;-71
2022/03/20 03:52:51;;;;;;;17.20;10.03;;;;;;;-2.64;64.00;99738.00;6202531;28;20216;-71
2022/03/20 03:55:53;;;;;;;17.03;8.90;;;;;;;-2.66;63.76;99737.13;6202964;28;20538;-70
2022/03/20 03:58:55;;;;;;;14.33;9.67;;;;;;;-2.72;63.52;99730.22;6202748;28;21778;-70
2022/03/20 04:01:57;;;;;;;13.90;9.67;;;;;;;-2.76;63.91;99723.28;6202594;28;20323;-72
2022/03/20 04:04:59;;;;;;;15.00;9.53;;;;;;;-2.78;64.01;99724.13;6202503;28;20294;-71
2022/03/20 04:08:02;;;;;;;17.20;9.70;;;;;;;-2.82;65.00;99720.69;6202494;28;20236;-71
2022/03/20 04:11:04;;;;;;;14.83;9.47;;;;;;;-2.86;65.30;99715.47;6184584;28;20231;-73
2022/03/20 04:14:06;;;;;;;18.17;9.53;;;;;;;-2.83;64.67;99710.34;6203142;28;20232;-71
2022/03/20 04:17:12;;;;;;;13.70;9.07;;;;;;;-2.84;64.58;99713.78;6211663;28;20232;-72
2022/03/20 04:20:14;;;;;;;15.83;9.67;;;;;;;-2.88;65.62;99714.59;6185533;28;20232;-72
2022/03/20 04:26:37;;;;;;;15.47;10.37;;;;;;;-2.92;64.97;99715.44;6201252;28;20267;-72
2022/03/20 04:29:40;;;;;;;15.57;9.93;;;;;;;-2.94;64.28;99714.56;6200422;28;20298;-71
2022/03/20 04:32:43;;;;;;;12.93;8.67;;;;;;;-2.99;64.73;99720.56;6199037;28;20282;-71
2022/03/20 04:35:45;;;;;;;16.43;9.77;;;;;;;-3.02;65.86;99717.97;6200484;28;20232;-71
2022/03/20 04:38:49;;;;;;;12.53;8.53;;;;;;;-3.07;65.62;99717.06;6199092;28;20343;-71
2022/03/20 04:41:51;;;;;;;14.20;9.00;;;;;;;-3.08;66.17;99724.78;6199873;28;20216;-72
2022/03/20 04:44:53;;;;;;;13.17;8.73;;;;;;;-3.13;66.26;99731.66;6198515;28;20239;-72
2022/03/20 05:01:18;;;;;;;13.17;8.87;;;;;;;-3.09;65.53;99730.81;6190542;28;20217;-71
2022/03/20 05:04:20;;;;;;;15.57;8.90;;;;;;;-3.02;63.98;99737.78;6200028;28;20311;-70
2022/03/20 05:07:23;;;;;;;12.83;7.70;;;;;;;-2.95;63.91;99731.78;6199105;28;20247;-71
2022/03/20 05:13:45;;;;;;;13.90;7.00;;;;;;;-2.83;63.68;99741.34;6199443;28;20224;-71
2022/03/20 05:16:50;;;;;;;9.27;6.50;;;;;;;-2.78;62.75;99737.03;6199228;28;20237;-71
2022/03/20 05:19:52;;;;;;;10.70;7.20;;;;;;;-2.70;61.71;99736.25;6200788;28;20237;-71
2022/03/20 05:22:54;;;;;;;11.27;6.13;;;;;;;-2.39;56.51;99741.56;6199979;28;20228;-71
2022/03/20 05:25:56;;;;;;;13.53;7.27;;;;;;;-2.22;57.44;99736.47;6215801;28;20232;-71
2022/03/20 05:28:58;;;;;;;11.47;7.17;;;;;;;-2.16;58.20;99733.91;6202287;28;20329;-72
2022/03/20 05:32:02;;;;;;;7.30;5.90;;;;;;;-2.09;57.32;99751.16;6204006;28;20304;-71
2022/03/20 05:35:07;;;;;;;10.10;6.70;;;;;;;-1.90;55.08;99750.38;6218675;28;20233;-71
2022/03/20 05:38:10;;;;;;;10.53;7.03;;;;;;;-1.70;54.23;99756.47;6203533;28;20233;-71
2022/03/20 05:44:35;;;;;;;8.07;5.80;;;;;;;-1.33;52.67;99759.97;6207189;28;20225;-71
2022/03/20 05:47:40;;;;;;;10.17;6.53;;;;;;;-1.45;54.47;99759.94;6202026;28;20247;-71
2022/03/20 05:50:42;;;;;;;11.10;7.00;;;;;;;-1.49;54.35;99763.38;6204346;28;20232;-71
2022/03/20 05:53:44;;;;;;;10.50;6.57;;;;;;;-1.55;54.66;99765.97;6204497;28;20224;-72
2022/03/20 06:00:16;;;;;;;9.63;6.50;;;;;;;-1.28;52.73;99767.72;6192747;28;20245;-71
2022/03/20 06:03:21;;;;;;;10.20;7.07;;;;;;;-1.30;53.37;99770.34;6203797;28;20201;-72
2022/03/20 06:06:24;;;;;;;12.80;6.77;;;;;;;-1.23;53.17;99768.59;6205005;28;20323;-72
2022/03/20 06:09:26;;;;;;;10.03;6.97;;;;;;;-1.24;53.57;99778.09;6204247;28;20228;-72
2022/03/20 06:12:29;;;;;;;11.07;6.53;;;;;;;-1.14;53.97;99781.56;6202556;28;20252;-72
2022/03/20 06:15:31;;;;;;;9.17;6.57;;;;;;;-1.14;53.58;99781.56;6192919;28;20731;-72
2022/03/20 06:18:34;;;;;;;12.60;6.77;;;;;;;-0.98;50.16;99785.84;6202777;28;20703;-71
2022/03/20 06:21:36;;;;;;;14.67;7.53;;;;;;;-0.70;48.43;99785.84;6200720;28;20726;-71
2022/03/20 06:24:38;;;;;;;14.63;6.70;;;;;;;-0.41;47.04;99797.03;6203483;28;20217;-71
2022/03/20 06:27:51;;;;;;;10.03;6.37;;;;;;;-0.31;47.78;99800.47;6202118;28;20229;-71
2022/03/20 06:30:54;;;;;;;8.73;6.03;;;;;;;-0.32;48.59;99807.38;6207600;28;20335;-70
2022/03/20 06:33:59;;;;;;;11.03;7.03;;;;;;;-0.28;48.69;99800.44;6204581;28;20231;-71
2022/03/20 06:37:01;;;;;;;10.43;6.33;;;;;;;-0.15;46.54;99800.41;6204040;28;20224;-71
2022/03/20 07:40:08;;;;;;;9.97;7.10;;;;;;;1.51;43.15;99843.50;6015452;28;20228;-71
2022/03/20 07:43:13;;;;;;;10.33;6.80;;;;;;;1.74;42.87;99849.38;6183221;28;20766;-71
2022/03/20 07:46:15;;;;;;;10.67;7.73;;;;;;;1.90;43.31;99838.81;6203333;28;20236;-72
2022/03/20 07:49:17;;;;;;;10.77;7.90;;;;;;;1.99;41.20;99828.28;6201357;28;20628;-72
2022/03/20 07:52:20;;;;;;;12.10;8.07;;;;;;;2.31;40.76;99827.88;6201982;28;20228;-72
2022/03/20 07:55:23;;;;;;;11.50;7.97;;;;;;;2.74;40.44;99823.81;6201325;28;20725;-71
2022/03/20 07:58:25;;;;;;;8.93;6.53;;;;;;;3.10;40.23;99824.13;6439461;23;20629;-77
2022/03/20 08:01:28;;;;;;;12.03;7.83;;;;;;;3.43;40.61;99822.72;6250279;28;20227;-76
2022/03/20 08:04:31;;;;;;;11.73;7.43;;;;;;;3.70;38.83;99827.44;6252338;28;20273;-78
2022/03/20 08:07:42;;;;;;;13.63;7.73;;;;;;;3.83;37.64;99825.47;6253537;28;20243;-78
2022/03/20 08:10:45;;;;;;;10.67;7.63;;;;;;;3.97;38.09;99823.47;6250439;28;20262;-78
2022/03/20 08:13:47;;;;;;;11.83;7.70;;;;;;;4.36;36.64;99825.28;6251863;28;20246;-77
2022/03/20 08:16:49;;;;;;;12.93;7.50;;;;;;;4.50;36.84;99821.50;6248906;28;20219;-77
2022/03/20 08:19:52;;;;;;;10.47;7.73;;;;;;;4.94;36.51;99817.91;6228803;28;20231;-77
2022/03/20 08:22:54;;;;;;;11.73;7.60;;;;;;;5.23;35.37;99815.44;6249084;28;20249;-78
2022/03/20 08:25:56;;;;;;;10.13;7.23;;;;;;;5.69;34.43;99820.38;6245745;28;20224;-78
2022/03/20 08:28:59;;;;;;;10.80;7.40;;;;;;;5.93;33.17;99824.13;6249028;28;20234;-77
2022/03/20 08:32:01;;;;;;;11.97;8.33;;;;;;;6.25;34.54;99812.75;6249099;28;20232;-78
2022/03/20 08:35:05;;;;;;;12.07;8.07;;;;;;;6.81;34.40;99813.69;6250828;28;20479;-78
2022/03/20 08:38:07;;;;;;;14.13;7.50;;;;;;;7.08;33.36;99819.00;6251639;28;20227;-78
2022/03/20 08:41:14;;;;;;;11.20;8.23;;;;;;;6.91;32.06;99812.50;6251591;28;20347;-78
2022/03/20 08:44:16;;;;;;;12.20;8.10;;;;;;;7.09;32.29;99808.41;6246411;28;20250;-77
2022/03/20 08:47:18;;;;;;;14.13;8.90;;;;;;;7.18;32.15;99807.28;6261698;28;20690;-78
2022/03/20 08:50:20;;;;;;;13.17;8.63;;;;;;;7.49;32.73;99814.97;6250486;28;20223;-78
2022/03/20 08:53:23;;;;;;;11.53;8.30;;;;;;;7.43;31.94;99812.56;6247529;28;20231;-78
2022/03/20 08:56:25;;;;;;;11.73;8.40;;;;;;;7.65;32.49;99803.06;6249543;28;20230;-78
2022/03/20 08:59:27;;;;;;;10.57;8.00;;;;;;;7.97;30.54;99802.81;6247257;28;20319;-78
2022/03/20 09:02:29;;;;;;;12.73;8.40;;;;;;;7.96;31.01;99803.72;6250537;28;20245;-77
2022/03/20 09:05:31;;;;;;;12.97;8.80;;;;;;;7.65;30.75;99797.81;6254588;28;20283;-79
2022/03/20 09:08:34;;;;;;;14.63;8.93;;;;;;;7.48;30.76;99790.50;6255093;28;20318;-77
2022/03/20 09:11:48;;;;;;;12.67;8.90;;;;;;;7.73;31.83;99801.88;6254745;28;20235;-77
2022/03/20 09:14:52;;;;;;;11.70;8.33;;;;;;;8.27;30.37;99798.19;6233662;28;20673;-78
2022/03/20 09:21:16;;;;;;;13.60;9.20;;;;;;;8.48;31.37;99804.47;6244092;28;20233;-78
2022/03/20 09:24:18;;;;;;;13.77;8.33;;;;;;;8.46;31.11;99812.41;6255698;28;20664;-78
2022/03/20 09:27:22;;;;;;;12.53;8.87;;;;;;;8.56;30.03;99809.44;6254709;28;20732;-78
2022/03/20 09:30:24;;;;;;;14.53;9.30;;;;;;;8.34;30.63;99814.63;6257699;28;20226;-77
2022/03/20 09:33:27;;;;;;;14.23;9.07;;;;;;;8.27;31.46;99813.13;6252266;28;20229;-77
2022/03/20 09:36:29;;;;;;;13.07;9.30;;;;;;;8.49;31.19;99814.03;6252943;28;20310;-77
2022/03/20 10:39:02;;;;;;;12.20;9.00;;;;;;;9.07;30.38;99809.16;5017149;28;20242;-78
2022/03/20 10:42:11;;;;;;;17.03;9.83;;;;;;;9.14;30.47;99813.25;6245554;28;20598;-77
2022/03/20 10:45:13;;;;;;;12.53;9.13;;;;;;;9.76;30.87;99812.44;6249845;28;20301;-78
2022/03/20 10:48:33;;;;;;;13.50;9.40;;;;;;;10.07;29.06;99809.31;6267189;28;20242;-78
2022/03/20 10:51:41;;;;;;;12.90;9.83;;;;;;;9.91;28.81;99820.53;6253982;28;20238;-78
2022/03/20 10:54:45;;;;;;;14.57;9.17;;;;;;;10.03;28.96;99805.97;6253937;28;20248;-78
2022/03/20 10:57:47;;;;;;;13.23;9.20;;;;;;;10.15;28.63;99805.41;6246204;28;20734;-78
2022/03/20 11:00:49;;;;;;;13.70;9.80;;;;;;;9.88;28.68;99810.09;6249364;28;20227;-78
2022/03/20 11:03:51;;;;;;;13.13;8.80;;;;;;;9.65;29.60;99806.75;6249389;28;20585;-78
2022/03/20 11:06:54;;;;;;;11.57;9.17;;;;;;;9.44;30.19;99792.69;6250758;28;20238;-77
2022/03/20 11:09:57;;;;;;;12.70;9.40;;;;;;;9.32;29.87;99801.09;6251571;28;20229;-78
2022/03/20 11:13:00;;;;;;;13.57;9.47;;;;;;;9.61;29.47;99804.25;6253625;28;20702;-78
2022/03/20 11:16:05;;;;;;;10.57;8.80;;;;;;;9.90;29.50;99789.81;6251348;28;20236;-78
2022/03/20 11:19:13;;;;;;;11.93;9.37;;;;;;;9.99;28.94;99788.53;6251882;28;20235;-77
2022/03/20 11:22:20;;;;;;;11.73;8.40;;;;;;;9.69;28.75;99784.59;6252874;28;20235;-77
2022/03/20 11:25:24;;;;;;;10.37;8.63;;;;;;;9.53;29.92;99779.13;6251892;28;20523;-78
2022/03/20 11:28:27;;;;;;;14.97;10.37;;;;;;;9.70;29.20;99776.63;6245584;28;20578;-78
2022/03/20 11:31:36;;;;;;;14.17;10.23;;;;;;;9.62;29.47;99774.31;6251039;28;20226;-77
2022/03/20 11:34:38;;;;;;;12.83;9.30;;;;;;;9.82;29.18;99785.78;6249217;28;20584;-78
2022/03/20 11:37:47;;;;;;;13.40;9.90;;;;;;;9.51;29.31;99779.19;6201394;28;22536;-78
2022/03/20 11:41:23;;;;;;;11.77;8.83;;;;;;;10.26;28.27;99757.47;6251063;28;20267;-78
2022/03/20 11:44:25;;;;;;;10.83;8.80;;;;;;;10.73;28.87;99758.75;6174989;28;20241;-78
2022/03/20 11:47:29;;;;;;;12.27;9.43;;;;;;;10.46;28.73;99748.63;6160145;28;20703;-78
2022/03/20 11:50:50;;;;;;;10.87;8.30;;;;;;;10.71;28.48;99746.53;6174152;28;20257;-78
2022/03/20 11:54:04;;;;;;;9.83;8.30;;;;;;;10.64;27.56;99742.47;6175291;28;20257;-78
2022/03/20 11:57:29;;;;;;;15.37;8.57;;;;;;;10.66;27.89;99736.19;6171579;28;20240;-78
2022/03/20 12:00:35;;;;;;;13.20;8.80;;;;;;;11.01;26.63;99728.34;6167871;28;20717;-78
2022/03/20 12:03:47;;;;;;;11.60;9.00;;;;;;;11.12;27.19;99728.66;6153829;28;20226;-78
2022/03/20 12:07:13;;;;;;;11.80;8.47;;;;;;;11.33;26.61;99714.38;6175874;28;20228;-78
2022/03/20 12:10:43;;;;;;;11.03;8.17;;;;;;;11.84;26.87;99723.22;6166458;28;20244;-79
2022/03/20 12:14:36;;;;;;;10.23;8.07;;;;;;;11.43;26.35;99718.25;6149832;28;20241;-79
2022/03/20 12:17:58;;;;;;;10.60;8.13;;;;;;;12.23;26.28;99701.69;6159117;28;20771;-80
2022/03/20 12:21:04;;;;;;;9.83;7.93;;;;;;;12.56;26.57;99712.22;6216623;28;20720;-79
2022/03/20 12:24:35;;;;;;;11.10;7.93;;;;;;;11.69;25.67;99708.97;6252590;28;20786;-80
2022/03/20 12:27:38;;;;;;;10.27;8.07;;;;;;;11.74;25.55;99703.44;6250718;28;20611;-79
2022/03/20 12:30:45;;;;;;;12.23;8.03;;;;;;;12.12;25.30;99696.13;6266236;28;20224;-79
2022/03/20 12:34:17;;;;;;;8.93;7.60;;;;;;;12.45;24.87;99699.59;6251300;28;20233;-79
2022/03/20 12:37:40;;;;;;;10.60;7.90;;;;;;;13.45;24.60;99706.19;6251765;28;20322;-80
2022/03/20 12:40:42;;;;;;;9.93;7.47;;;;;;;12.87;24.27;99700.75;6184317;28;20236;-78
2022/03/20 12:43:59;;;;;;;10.80;7.63;;;;;;;12.98;23.65;99702.78;6199229;28;20230;-78
2022/03/20 12:47:03;;;;;;;10.23;7.47;;;;;;;12.78;23.99;99694.16;6199505;28;20265;-78
2022/03/20 12:50:09;;;;;;;11.07;7.30;;;;;;;11.88;23.49;99697.47;6200944;28;20250;-77
2022/03/20 12:53:16;;;;;;;10.77;7.77;;;;;;;11.89;24.19;99688.56;6202299;28;20297;-78
2022/03/20 12:56:33;;;;;;;9.80;7.60;;;;;;;12.34;24.62;99686.09;6201766;28;20226;-78
2022/03/20 12:59:35;;;;;;;9.10;7.30;;;;;;;12.45;24.04;99699.59;6201087;28;20657;-78
2022/03/20 13:03:07;;;;;;;9.27;7.10;;;;;;;12.48;23.75;99715.28;6201535;28;20248;-78
2022/03/20 13:06:09;;;;;;;10.37;7.20;;;;;;;12.40;23.89;99696.31;6201980;28;20741;-78
2022/03/20 13:09:13;;;;;;;8.20;6.53;;;;;;;12.76;23.13;99685.47;6206984;28;20276;-78
2022/03/20 13:12:15;;;;;;;8.63;7.10;;;;;;;12.85;23.88;99702.63;6202594;28;20312;-78
2022/03/20 13:15:34;;;;;;;11.23;6.90;;;;;;;12.50;22.53;99694.88;6202241;28;20220;-78
2022/03/20 13:18:36;;;;;;;10.17;7.20;;;;;;;12.34;22.93;99704.63;6216728;28;20236;-77
2022/03/20 13:21:48;;;;;;;10.73;7.07;;;;;;;12.46;22.50;99696.00;6202250;28;20576;-78
2022/03/20 13:24:50;;;;;;;10.17;6.80;;;;;;;12.76;22.29;99696.06;6199564;28;20230;-78
2022/03/20 13:27:53;;;;;;;7.47;6.13;;;;;;;13.38;21.88;99696.84;6183365;28;20242;-78
2022/03/20 13:30:58;;;;;;;7.83;6.40;;;;;;;13.87;20.77;99689.47;6201945;28;20239;-78
2022/03/20 13:34:01;;;;;;;7.63;6.30;;;;;;;13.87;21.59;99694.78;6200223;28;20373;-78
2022/03/20 13:37:24;;;;;;;7.17;6.07;;;;;;;13.77;21.10;99688.31;6202947;28;20764;-77
2022/03/20 13:40:29;;;;;;;8.10;6.33;;;;;;;13.17;20.75;99695.50;6249580;28;20246;-77
2022/03/20 13:43:31;;;;;;;6.03;5.33;;;;;;;14.61;20.29;99694.50;6249558;28;20234;-77
2022/03/20 13:46:35;;;;;;;7.83;6.40;;;;;;;14.25;19.67;99687.06;6244880;28;20679;-77
2022/03/20 13:49:38;;;;;;;10.23;6.40;;;;;;;12.90;20.45;99689.94;6253739;28;20225;-77
2022/03/20 13:52:42;;;;;;;7.07;6.10;;;;;;;13.95;20.08;99683.69;6253349;28;20220;-77
2022/03/20 13:55:44;;;;;;;7.47;6.17;;;;;;;15.44;19.60;99689.88;6253233;28;20232;-77
2022/03/20 13:59:07;;;;;;;7.47;6.23;;;;;;;14.98;18.54;99670.81;6256030;28;20232;-77
2022/03/20 14:02:09;;;;;;;8.23;6.23;;;;;;;15.47;19.28;99679.03;6253040;28;20294;-78
2022/03/20 14:05:14;;;;;;;9.23;6.10;;;;;;;15.49;18.92;99685.06;6271208;28;20229;-78
2022/03/20 14:08:17;;;;;;;9.67;6.23;;;;;;;14.45;19.65;99683.16;6254214;28;20371;-77
2022/03/20 14:11:32;;;;;;;6.67;5.97;;;;;;;13.51;21.12;99689.03;6255070;28;20243;-77
2022/03/20 14:14:50;;;;;;;8.07;6.63;;;;;;;13.43;21.46;99684.19;6252274;28;21054;-78
2022/03/20 14:17:55;;;;;;;9.50;6.57;;;;;;;13.21;21.50;99686.41;6255338;28;20365;-77
2022/03/20 14:21:12;;;;;;;7.67;6.13;;;;;;;13.41;21.49;99694.03;6254519;28;20228;-77
2022/03/20 14:24:14;;;;;;;8.90;6.50;;;;;;;12.99;21.59;99680.63;6252318;28;20222;-77
2022/03/20 14:27:25;;;;;;;9.10;6.37;;;;;;;12.61;22.33;99685.47;6252677;28;20221;-78
2022/03/20 14:40:47;;;;;;;8.13;6.33;;;;;;;11.48;23.80;99681.00;6251983;28;20657;-77
2022/03/20 14:44:05;;;;;;;9.23;6.70;;;;;;;11.48;23.11;99683.63;6268896;28;20696;-77
2022/03/20 14:47:07;;;;;;;7.37;6.37;;;;;;;10.84;23.65;99688.69;6246258;28;20301;-77
2022/03/20 14:50:09;;;;;;;9.17;6.60;;;;;;;10.29;24.62;99686.06;6251890;28;20254;-77
2022/03/20 14:53:24;;;;;;;8.10;6.40;;;;;;;10.13;24.89;99677.13;6253361;28;20231;-76
2022/03/20 14:56:26;;;;;;;12.07;6.67;;;;;;;9.89;25.00;99690.50;6256913;28;20750;-77
2022/03/20 14:59:28;;;;;;;7.73;6.47;;;;;;;10.14;24.75;99681.47;6249881;28;20228;-76
2022/03/20 15:02:30;;;;;;;8.70;6.10;;;;;;;9.89;24.78;99687.88;6232680;28;20227;-76
2022/03/20 15:05:32;;;;;;;8.13;6.50;;;;;;;9.67;25.95;99686.28;6235473;28;20306;-77
2022/03/20 15:12:12;;;;;;;8.57;6.67;;;;;;;9.82;25.22;99690.84;6251378;28;20875;-77
2022/03/20 15:15:15;;;;;;;8.37;6.23;;;;;;;9.51;25.80;99691.34;6251283;28;20227;-77
2022/03/20 15:18:17;;;;;;;9.53;6.27;;;;;;;9.19;25.75;99688.31;6253541;28;20207;-77
2022/03/20 15:21:20;;;;;;;7.90;5.97;;;;;;;9.29;26.49;99699.31;6252883;28;20713;-77
2022/03/20 15:24:22;;;;;;;8.07;6.27;;;;;;;9.44;25.64;99705.72;6252747;28;20227;-77
2022/03/20 15:27:24;;;;;;;9.37;6.40;;;;;;;9.51;26.09;99689.59;6268882;28;20226;-76
2022/03/20 15:30:26;;;;;;;7.13;5.47;;;;;;;9.46;26.05;99690.72;6252560;28;20231;-77
2022/03/20 15:33:30;;;;;;;9.80;5.97;;;;;;;9.27;26.47;99688.03;6252995;28;20740;-77
2022/03/20 15:36:35;;;;;;;10.03;6.27;;;;;;;9.16;26.27;99696.38;6267676;28;20237;-76
2022/03/20 15:39:38;;;;;;;7.17;5.83;;;;;;;8.91;26.11;99692.19;6252143;28;20231;-77
2022/03/20 15:42:42;;;;;;;10.73;6.13;;;;;;;8.67;27.12;99692.28;6252283;28;20226;-76
2022/03/20 15:45:43;;;;;;;7.30;6.57;;;;;;;8.62;27.37;99699.50;6244421;28;20263;-78
2022/03/20 15:48:46;;;;;;;8.93;6.03;;;;;;;8.32;27.47;99706.81;6247631;28;20226;-77
2022/03/20 15:51:48;;;;;;;9.67;6.73;;;;;;;8.27;27.44;99697.38;6250854;28;20230;-76
2022/03/20 15:54:51;;;;;;;7.80;6.07;;;;;;;8.15;27.62;99699.56;6252464;28;20249;-77
2022/03/20 15:58:13;;;;;;;8.57;6.80;;;;;;;8.26;28.15;99698.28;6251365;28;20231;-78
2022/03/20 16:01:19;;;;;;;7.77;5.80;;;;;;;8.28;28.15;99704.34;6250103;28;20242;-77
2022/03/20 16:04:22;;;;;;;8.20;5.93;;;;;;;8.07;28.22;99700.78;6252058;28;20237;-77
2022/03/20 16:07:25;;;;;;;7.20;6.10;;;;;;;8.02;28.37;99706.19;6250156;28;20707;-77
2022/03/20 16:10:27;;;;;;;10.60;6.50;;;;;;;7.96;28.95;99710.81;6251620;28;20241;-77
2022/03/20 16:13:29;;;;;;;7.87;5.67;;;;;;;7.85;28.41;99703.34;6250484;28;20230;-78
2022/03/20 16:16:32;;;;;;;11.17;6.30;;;;;;;7.76;28.98;99701.06;6235905;28;20537;-77
2022/03/20 16:19:34;;;;;;;7.90;5.90;;;;;;;7.70;28.94;99710.00;6245869;28;20715;-78
2022/03/20 16:29:19;;;;;;;9.37;6.77;;;;;;;7.05;29.84;99712.31;6251755;28;20581;-77
2022/03/20 16:32:21;;;;;;;9.80;6.13;;;;;;;6.98;30.38;99719.53;6251668;28;20238;-76
2022/03/20 16:35:26;;;;;;;7.63;5.67;;;;;;;6.88;30.33;99712.88;6251955;28;20226;-76
2022/03/20 16:38:28;;;;;;;6.87;6.00;;;;;;;6.69;30.02;99719.59;6250058;28;20244;-77
2022/03/20 16:41:30;;;;;;;10.53;6.23;;;;;;;6.51;30.94;99717.56;6250304;28;20239;-77
2022/03/20 16:44:34;;;;;;;8.57;6.00;;;;;;;6.39;30.87;99725.84;6252433;28;20598;-77
2022/03/20 16:47:37;;;;;;;6.60;5.50;;;;;;;6.31;30.74;99715.56;6248996;28;20319;-77
2022/03/20 16:50:42;;;;;;;9.50;5.63;;;;;;;6.15;31.16;99724.78;6249140;28;20242;-78
2022/03/20 16:53:44;;;;;;;7.10;5.53;;;;;;;6.07;31.01;99722.41;6249391;28;20224;-79
2022/03/20 16:56:46;;;;;;;7.83;5.60;;;;;;;5.93;31.51;99717.56;6233050;28;20236;-79
2022/03/20 16:59:48;;;;;;;9.27;5.77;;;;;;;5.76;31.23;99714.53;6250795;28;20581;-79
2022/03/20 17:02:50;;;;;;;6.70;5.40;;;;;;;5.66;32.49;99722.69;6266823;28;20233;-78
2022/03/20 17:05:53;;;;;;;6.53;5.20;;;;;;;5.45;32.70;99732.84;6251549;28;20597;-78
2022/03/20 17:08:55;;;;;;;8.30;5.47;;;;;;;5.26;32.56;99730.75;6251719;28;20242;-79
2022/03/20 17:11:57;;;;;;;8.07;5.87;;;;;;;5.19;33.45;99719.59;6249958;28;20248;-78
2022/03/20 17:14:59;;;;;;;7.80;4.90;;;;;;;5.05;33.98;99729.53;6248248;28;20238;-78
2022/03/20 17:18:02;;;;;;;6.67;4.97;;;;;;;4.89;34.03;99726.44;6244452;28;20226;-78
2022/03/20 17:21:07;;;;;;;7.43;4.80;;;;;;;4.75;35.00;99736.38;6249113;28;20235;-78
2022/03/20 17:24:10;;;;;;;7.00;4.60;;;;;;;4.63;35.45;99732.31;6270105;28;20226;-79
2022/03/20 17:27:16;;;;;;;7.43;5.30;;;;;;;4.42;36.26;99728.44;6254763;28;20570;-78
2022/03/20 17:30:20;;;;;;;7.40;5.10;;;;;;;4.21;36.63;99731.50;6256108;28;20317;-78
2022/03/20 17:33:22;;;;;;;6.83;4.97;;;;;;;4.05;36.74;99735.34;6238474;28;20364;-79
2022/03/20 17:36:24;;;;;;;8.20;5.20;;;;;;;4.00;36.58;99734.56;6254565;28;20235;-79
2022/03/20 17:39:26;;;;;;;8.23;5.30;;;;;;;3.94;36.46;99729.50;6256006;28;20894;-79
2022/03/20 17:42:28;;;;;;;8.10;4.77;;;;;;;4.02;35.27;99725.81;6254293;28;20227;-78
2022/03/20 17:45:37;;;;;;;9.17;5.17;;;;;;;3.86;36.74;99736.63;6250014;28;20235;-80
2022/03/20 17:48:40;;;;;;;7.03;4.93;;;;;;;3.81;35.53;99734.09;6245711;28;20228;-80
2022/03/20 17:51:44;;;;;;;5.50;4.17;;;;;;;3.76;37.21;99745.53;6253878;28;20593;-80
2022/03/20 17:54:46;;;;;;;7.13;4.30;;;;;;;3.62;38.05;99740.56;6255603;28;20635;-80
2022/03/20 17:57:49;;;;;;;6.43;4.67;;;;;;;3.44;39.45;99743.53;6238646;28;20222;-79
2022/03/20 18:00:51;;;;;;;6.07;4.67;;;;;;;3.35;39.03;99749.78;6254871;28;20700;-79
2022/03/20 18:10:37;;;;;;;6.47;4.93;;;;;;;3.02;39.93;99751.22;6254973;28;20242;-80
2022/03/20 18:13:39;;;;;;;6.97;4.50;;;;;;;2.88;40.63;99753.22;6254914;28;20239;-80
2022/03/20 18:16:41;;;;;;;6.97;4.40;;;;;;;2.78;40.95;99759.47;6238947;28;20237;-80
2022/03/20 18:19:43;;;;;;;6.37;4.37;;;;;;;2.75;40.96;99762.13;6245452;28;20708;-80
2022/03/20 18:22:47;;;;;;;7.70;5.10;;;;;;;2.74;40.41;99768.22;6253722;28;20224;-80
2022/03/20 18:25:49;;;;;;;6.17;4.77;;;;;;;2.73;39.50;99772.56;6256404;28;20236;-79
2022/03/20 18:28:51;;;;;;;6.83;4.90;;;;;;;2.55;41.54;99770.22;6253083;28;20596;-79
2022/03/20 18:31:53;;;;;;;7.37;5.13;;;;;;;2.34;41.22;99771.41;6255168;28;20771;-78